sensor_id;sensor_type;location;lat;lon;timestamp;P1;durP1;ratioP1;P2;durP2;ratioP2
40599;SDS011;26309;50.924;4.754;2023-02-28T00:01:11;14.23;;;10.00;;
40599;SDS011;26309;50.924;4.754;2023-02-28T00:03:39;13.53;;;9.17;;
40599;SDS011;26309;50.924;4.754;2023-02-28T00:06:05;16.27;;;10.07;;
40599;SDS011;26309;50.924;4.754;2023-02-28T00:08:32;16.53;;;10.40;;
40599;SDS011;26309;50.924;4.754;2023-02-28T00:11:02;17.77;;;10.27;;
40599;SDS011;26309;50.924;4.754;2023-02-28T00:13:37;18.37;;;9.90;;
40599;SDS011;26309;50.924;4.754;2023-02-28T00:16:09;13.63;;;9.43;;
40599;SDS011;26309;50.924;4.754;2023-02-28T00:18:38;14.33;;;9.57;;
40599;SDS011;26309;50.924;4.754;2023-02-28T00:21:04;14.80;;;9.17;;
40599;SDS011;26309;50.924;4.754;2023-02-28T00:23:31;17.60;;;8.97;;
40599;SDS011;26309;50.924;4.754;2023-02-28T00:25:57;15.83;;;8.73;;
40599;SDS011;26309;50.924;4.754;2023-02-28T00:28:23;13.90;;;8.13;;
40599;SDS011;26309;50.924;4.754;2023-02-28T00:30:51;11.50;;;8.60;;
40599;SDS011;26309;50.924;4.754;2023-02-28T00:33:17;12.73;;;9.03;;
40599;SDS011;26309;50.924;4.754;2023-02-28T00:35:43;12.50;;;8.47;;
40599;SDS011;26309;50.924;4.754;2023-02-28T00:38:11;13.70;;;8.20;;
40599;SDS011;26309;50.924;4.754;2023-02-28T00:40:38;12.27;;;8.07;;
40599;SDS011;26309;50.924;4.754;2023-02-28T00:43:04;11.97;;;7.93;;
40599;SDS011;26309;50.924;4.754;2023-02-28T00:45:30;12.60;;;8.80;;
40599;SDS011;26309;50.924;4.754;2023-02-28T00:47:56;13.00;;;8.60;;
40599;SDS011;26309;50.924;4.754;2023-02-28T00:50:21;14.07;;;9.03;;
40599;SDS011;26309;50.924;4.754;2023-02-28T00:55:19;15.43;;;8.73;;
40599;SDS011;26309;50.924;4.754;2023-02-28T00:57:45;13.97;;;8.90;;
40599;SDS011;26309;50.924;4.754;2023-02-28T01:00:11;13.07;;;8.73;;
40599;SDS011;26309;50.924;4.754;2023-02-28T01:02:37;16.70;;;8.60;;
40599;SDS011;26309;50.924;4.754;2023-02-28T01:05:03;11.50;;;8.27;;
40599;SDS011;26309;50.924;4.754;2023-02-28T01:07:29;11.63;;;9.37;;
40599;SDS011;26309;50.924;4.754;2023-02-28T01:09:55;17.93;;;9.27;;
40599;SDS011;26309;50.924;4.754;2023-02-28T01:12:21;13.77;;;9.30;;
40599;SDS011;26309;50.924;4.754;2023-02-28T01:14:47;12.70;;;8.80;;
40599;SDS011;26309;50.924;4.754;2023-02-28T01:17:13;12.97;;;9.33;;
40599;SDS011;26309;50.924;4.754;2023-02-28T01:22:08;12.70;;;8.70;;
40599;SDS011;26309;50.924;4.754;2023-02-28T01:24:34;13.23;;;9.13;;
40599;SDS011;26309;50.924;4.754;2023-02-28T01:27:00;16.50;;;8.80;;
40599;SDS011;26309;50.924;4.754;2023-02-28T01:29:28;11.87;;;8.73;;
40599;SDS011;26309;50.924;4.754;2023-02-28T01:31:54;13.03;;;9.43;;
40599;SDS011;26309;50.924;4.754;2023-02-28T01:34:22;17.13;;;10.57;;
40599;SDS011;26309;50.924;4.754;2023-02-28T01:36:51;13.80;;;9.60;;
40599;SDS011;26309;50.924;4.754;2023-02-28T01:39:17;14.90;;;9.53;;
40599;SDS011;26309;50.924;4.754;2023-02-28T01:41:43;17.77;;;9.77;;
40599;SDS011;26309;50.924;4.754;2023-02-28T01:47:13;15.47;;;9.87;;
40599;SDS011;26309;50.924;4.754;2023-02-28T01:49:39;20.03;;;10.47;;
40599;SDS011;26309;50.924;4.754;2023-02-28T01:52:05;15.40;;;9.77;;
40599;SDS011;26309;50.924;4.754;2023-02-28T01:54:33;25.57;;;9.87;;
40599;SDS011;26309;50.924;4.754;2023-02-28T01:57:03;19.27;;;9.83;;
40599;SDS011;26309;50.924;4.754;2023-02-28T01:59:34;13.73;;;9.20;;
40599;SDS011;26309;50.924;4.754;2023-02-28T02:02:05;14.13;;;9.23;;
40599;SDS011;26309;50.924;4.754;2023-02-28T02:04:33;14.60;;;10.13;;
40599;SDS011;26309;50.924;4.754;2023-02-28T02:07:04;15.27;;;9.70;;
40599;SDS011;26309;50.924;4.754;2023-02-28T02:09:30;15.07;;;10.07;;
40599;SDS011;26309;50.924;4.754;2023-02-28T02:11:56;19.20;;;10.10;;
40599;SDS011;26309;50.924;4.754;2023-02-28T02:25:51;17.07;;;9.77;;
40599;SDS011;26309;50.924;4.754;2023-02-28T02:45:17;13.73;;;10.20;;
40599;SDS011;26309;50.924;4.754;2023-02-28T02:47:49;15.67;;;10.30;;
40599;SDS011;26309;50.924;4.754;2023-02-28T02:50:22;16.07;;;10.13;;
40599;SDS011;26309;50.924;4.754;2023-02-28T02:52:55;15.53;;;9.67;;
40599;SDS011;26309;50.924;4.754;2023-02-28T02:55:24;16.03;;;10.87;;
40599;SDS011;26309;50.924;4.754;2023-02-28T02:57:58;19.97;;;10.30;;
40599;SDS011;26309;50.924;4.754;2023-02-28T03:00:31;15.53;;;9.53;;
40599;SDS011;26309;50.924;4.754;2023-02-28T03:03:05;12.53;;;9.00;;
40599;SDS011;26309;50.924;4.754;2023-02-28T03:05:35;16.70;;;10.53;;
40599;SDS011;26309;50.924;4.754;2023-02-28T03:08:11;19.70;;;10.37;;
40599;SDS011;26309;50.924;4.754;2023-02-28T03:10:38;21.80;;;11.03;;
40599;SDS011;26309;50.924;4.754;2023-02-28T03:26:54;13.37;;;10.03;;
40599;SDS011;26309;50.924;4.754;2023-02-28T03:29:42;15.83;;;10.90;;
40599;SDS011;26309;50.924;4.754;2023-02-28T03:37:33;20.47;;;11.53;;
40599;SDS011;26309;50.924;4.754;2023-02-28T03:40:04;17.10;;;11.47;;
40599;SDS011;26309;50.924;4.754;2023-02-28T03:42:38;21.13;;;10.70;;
40599;SDS011;26309;50.924;4.754;2023-02-28T03:45:10;19.70;;;10.33;;
40599;SDS011;26309;50.924;4.754;2023-02-28T03:47:46;17.93;;;10.80;;
40599;SDS011;26309;50.924;4.754;2023-02-28T03:50:18;16.10;;;11.23;;
40599;SDS011;26309;50.924;4.754;2023-02-28T03:52:49;14.77;;;10.60;;
40599;SDS011;26309;50.924;4.754;2023-02-28T03:55:58;16.73;;;10.53;;
40599;SDS011;26309;50.924;4.754;2023-02-28T03:58:42;18.97;;;11.10;;
40599;SDS011;26309;50.924;4.754;2023-02-28T04:01:38;17.53;;;11.20;;
40599;SDS011;26309;50.924;4.754;2023-02-28T04:04:06;14.23;;;10.00;;
40599;SDS011;26309;50.924;4.754;2023-02-28T04:06:34;13.57;;;10.77;;
40599;SDS011;26309;50.924;4.754;2023-02-28T04:09:09;18.83;;;11.70;;
40599;SDS011;26309;50.924;4.754;2023-02-28T04:11:40;15.37;;;11.27;;
40599;SDS011;26309;50.924;4.754;2023-02-28T04:14:09;18.53;;;11.67;;
40599;SDS011;26309;50.924;4.754;2023-02-28T04:16:36;18.53;;;12.33;;
40599;SDS011;26309;50.924;4.754;2023-02-28T04:19:03;20.30;;;12.80;;
40599;SDS011;26309;50.924;4.754;2023-02-28T04:21:34;19.80;;;12.53;;
40599;SDS011;26309;50.924;4.754;2023-02-28T04:24:06;21.83;;;12.83;;
40599;SDS011;26309;50.924;4.754;2023-02-28T04:26:34;20.30;;;12.23;;
40599;SDS011;26309;50.924;4.754;2023-02-28T04:29:02;16.67;;;11.83;;
40599;SDS011;26309;50.924;4.754;2023-02-28T04:31:31;14.73;;;12.07;;
40599;SDS011;26309;50.924;4.754;2023-02-28T04:33:57;20.33;;;12.40;;
40599;SDS011;26309;50.924;4.754;2023-02-28T04:36:22;15.93;;;11.90;;
40599;SDS011;26309;50.924;4.754;2023-02-28T04:38:52;19.67;;;13.17;;
40599;SDS011;26309;50.924;4.754;2023-02-28T04:41:18;16.50;;;12.80;;
40599;SDS011;26309;50.924;4.754;2023-02-28T04:43:44;17.33;;;12.40;;
40599;SDS011;26309;50.924;4.754;2023-02-28T04:46:10;19.47;;;13.30;;
40599;SDS011;26309;50.924;4.754;2023-02-28T04:48:37;22.60;;;12.77;;
40599;SDS011;26309;50.924;4.754;2023-02-28T04:51:07;21.17;;;12.23;;
40599;SDS011;26309;50.924;4.754;2023-02-28T04:53:35;19.60;;;12.27;;
40599;SDS011;26309;50.924;4.754;2023-02-28T04:56:03;20.53;;;12.80;;
40599;SDS011;26309;50.924;4.754;2023-02-28T04:58:30;16.77;;;11.47;;
40599;SDS011;26309;50.924;4.754;2023-02-28T05:01:05;18.27;;;11.47;;
40599;SDS011;26309;50.924;4.754;2023-02-28T05:03:44;17.00;;;11.63;;
40599;SDS011;26309;50.924;4.754;2023-02-28T05:06:10;19.33;;;11.87;;
40599;SDS011;26309;50.924;4.754;2023-02-28T05:08:37;22.47;;;12.60;;
40599;SDS011;26309;50.924;4.754;2023-02-28T05:11:18;17.80;;;12.87;;
40599;SDS011;26309;50.924;4.754;2023-02-28T05:13:44;17.10;;;11.63;;
40599;SDS011;26309;50.924;4.754;2023-02-28T05:16:10;24.80;;;12.10;;
40599;SDS011;26309;50.924;4.754;2023-02-28T05:18:36;26.50;;;14.07;;
40599;SDS011;26309;50.924;4.754;2023-02-28T05:21:03;23.30;;;13.83;;
40599;SDS011;26309;50.924;4.754;2023-02-28T05:23:29;18.47;;;14.33;;
40599;SDS011;26309;50.924;4.754;2023-02-28T05:25:55;25.53;;;14.00;;
40599;SDS011;26309;50.924;4.754;2023-02-28T05:28:30;22.67;;;14.23;;
40599;SDS011;26309;50.924;4.754;2023-02-28T05:31:00;18.10;;;13.07;;
40599;SDS011;26309;50.924;4.754;2023-02-28T05:33:26;19.80;;;13.77;;
40599;SDS011;26309;50.924;4.754;2023-02-28T05:35:53;18.73;;;13.23;;
40599;SDS011;26309;50.924;4.754;2023-02-28T05:38:18;24.73;;;14.93;;
40599;SDS011;26309;50.924;4.754;2023-02-28T05:40:44;18.63;;;13.70;;
40599;SDS011;26309;50.924;4.754;2023-02-28T05:43:10;18.50;;;13.53;;
40599;SDS011;26309;50.924;4.754;2023-02-28T05:45:37;24.13;;;14.20;;
40599;SDS011;26309;50.924;4.754;2023-02-28T05:48:02;20.77;;;15.53;;
40599;SDS011;26309;50.924;4.754;2023-02-28T05:50:28;18.60;;;14.13;;
40599;SDS011;26309;50.924;4.754;2023-02-28T05:52:54;19.37;;;13.67;;
40599;SDS011;26309;50.924;4.754;2023-02-28T05:55:20;27.60;;;15.87;;
40599;SDS011;26309;50.924;4.754;2023-02-28T05:57:47;23.10;;;15.83;;
40599;SDS011;26309;50.924;4.754;2023-02-28T06:00:12;26.37;;;16.63;;
40599;SDS011;26309;50.924;4.754;2023-02-28T06:02:40;23.83;;;16.67;;
40599;SDS011;26309;50.924;4.754;2023-02-28T06:05:13;26.77;;;17.00;;
40599;SDS011;26309;50.924;4.754;2023-02-28T06:07:41;28.73;;;16.87;;
40599;SDS011;26309;50.924;4.754;2023-02-28T06:10:09;31.10;;;16.33;;
40599;SDS011;26309;50.924;4.754;2023-02-28T06:12:36;25.00;;;16.17;;
40599;SDS011;26309;50.924;4.754;2023-02-28T06:15:03;23.60;;;14.13;;
40599;SDS011;26309;50.924;4.754;2023-02-28T06:17:29;24.97;;;15.40;;
40599;SDS011;26309;50.924;4.754;2023-02-28T06:19:55;23.90;;;14.50;;
40599;SDS011;26309;50.924;4.754;2023-02-28T06:22:22;25.93;;;14.43;;
40599;SDS011;26309;50.924;4.754;2023-02-28T06:24:48;20.47;;;14.80;;
40599;SDS011;26309;50.924;4.754;2023-02-28T06:27:14;21.87;;;14.53;;
40599;SDS011;26309;50.924;4.754;2023-02-28T06:29:40;19.87;;;14.03;;
40599;SDS011;26309;50.924;4.754;2023-02-28T06:32:06;19.27;;;13.80;;
40599;SDS011;26309;50.924;4.754;2023-02-28T06:34:32;20.03;;;14.63;;
40599;SDS011;26309;50.924;4.754;2023-02-28T06:36:59;25.23;;;16.47;;
40599;SDS011;26309;50.924;4.754;2023-02-28T06:39:27;23.80;;;14.30;;
40599;SDS011;26309;50.924;4.754;2023-02-28T06:41:54;23.30;;;15.73;;
40599;SDS011;26309;50.924;4.754;2023-02-28T06:44:21;24.53;;;15.53;;
40599;SDS011;26309;50.924;4.754;2023-02-28T06:46:47;27.50;;;16.20;;
40599;SDS011;26309;50.924;4.754;2023-02-28T06:49:13;27.90;;;16.53;;
40599;SDS011;26309;50.924;4.754;2023-02-28T06:51:41;23.20;;;15.83;;
40599;SDS011;26309;50.924;4.754;2023-02-28T06:54:10;24.93;;;16.30;;
40599;SDS011;26309;50.924;4.754;2023-02-28T06:56:37;24.53;;;15.30;;
40599;SDS011;26309;50.924;4.754;2023-02-28T06:59:03;30.00;;;15.80;;
40599;SDS011;26309;50.924;4.754;2023-02-28T07:01:29;21.00;;;14.97;;
40599;SDS011;26309;50.924;4.754;2023-02-28T07:03:57;23.50;;;15.53;;
40599;SDS011;26309;50.924;4.754;2023-02-28T07:06:23;23.70;;;15.77;;
40599;SDS011;26309;50.924;4.754;2023-02-28T07:08:50;33.23;;;16.50;;
40599;SDS011;26309;50.924;4.754;2023-02-28T07:11:18;21.47;;;16.07;;
40599;SDS011;26309;50.924;4.754;2023-02-28T07:13:44;21.73;;;15.63;;
40599;SDS011;26309;50.924;4.754;2023-02-28T07:16:11;26.37;;;17.03;;
40599;SDS011;26309;50.924;4.754;2023-02-28T07:18:37;31.73;;;19.03;;
40599;SDS011;26309;50.924;4.754;2023-02-28T07:21:04;31.73;;;19.67;;
40599;SDS011;26309;50.924;4.754;2023-02-28T07:23:32;26.90;;;18.47;;
40599;SDS011;26309;50.924;4.754;2023-02-28T07:25:58;25.27;;;17.73;;
40599;SDS011;26309;50.924;4.754;2023-02-28T07:28:24;30.23;;;19.20;;
40599;SDS011;26309;50.924;4.754;2023-02-28T07:30:50;29.80;;;17.07;;
40599;SDS011;26309;50.924;4.754;2023-02-28T07:33:16;26.23;;;17.37;;
40599;SDS011;26309;50.924;4.754;2023-02-28T07:35:42;24.67;;;16.00;;
40599;SDS011;26309;50.924;4.754;2023-02-28T07:38:08;30.17;;;16.10;;
40599;SDS011;26309;50.924;4.754;2023-02-28T07:40:35;28.83;;;15.93;;
40599;SDS011;26309;50.924;4.754;2023-02-28T07:43:02;23.57;;;15.60;;
40599;SDS011;26309;50.924;4.754;2023-02-28T07:45:28;25.23;;;14.50;;
40599;SDS011;26309;50.924;4.754;2023-02-28T07:47:57;21.67;;;14.73;;
40599;SDS011;26309;50.924;4.754;2023-02-28T07:50:23;26.17;;;14.20;;
40599;SDS011;26309;50.924;4.754;2023-02-28T07:52:49;20.50;;;14.83;;
40599;SDS011;26309;50.924;4.754;2023-02-28T07:55:14;19.60;;;13.00;;
40599;SDS011;26309;50.924;4.754;2023-02-28T07:57:42;17.70;;;12.20;;
40599;SDS011;26309;50.924;4.754;2023-02-28T08:00:09;14.33;;;10.53;;
40599;SDS011;26309;50.924;4.754;2023-02-28T08:02:36;24.13;;;11.63;;
40599;SDS011;26309;50.924;4.754;2023-02-28T08:05:02;17.73;;;10.13;;
40599;SDS011;26309;50.924;4.754;2023-02-28T08:07:28;16.53;;;10.33;;
40599;SDS011;26309;50.924;4.754;2023-02-28T08:09:54;15.37;;;9.57;;
40599;SDS011;26309;50.924;4.754;2023-02-28T08:12:20;19.57;;;9.60;;
40599;SDS011;26309;50.924;4.754;2023-02-28T08:14:46;12.10;;;9.07;;
40599;SDS011;26309;50.924;4.754;2023-02-28T08:17:12;14.83;;;8.07;;
40599;SDS011;26309;50.924;4.754;2023-02-28T08:19:38;12.67;;;8.63;;
40599;SDS011;26309;50.924;4.754;2023-02-28T08:22:04;13.80;;;7.70;;
40599;SDS011;26309;50.924;4.754;2023-02-28T08:24:30;11.30;;;7.50;;
40599;SDS011;26309;50.924;4.754;2023-02-28T08:26:56;12.33;;;7.27;;
40599;SDS011;26309;50.924;4.754;2023-02-28T08:29:24;10.53;;;6.60;;
40599;SDS011;26309;50.924;4.754;2023-02-28T08:31:51;11.53;;;7.63;;
40599;SDS011;26309;50.924;4.754;2023-02-28T08:34:17;7.97;;;6.00;;
40599;SDS011;26309;50.924;4.754;2023-02-28T08:36:43;12.37;;;6.97;;
40599;SDS011;26309;50.924;4.754;2023-02-28T08:39:13;8.47;;;6.33;;
40599;SDS011;26309;50.924;4.754;2023-02-28T08:41:39;7.63;;;6.13;;
40599;SDS011;26309;50.924;4.754;2023-02-28T08:44:04;10.50;;;6.40;;
40599;SDS011;26309;50.924;4.754;2023-02-28T08:46:30;8.40;;;6.43;;
40599;SDS011;26309;50.924;4.754;2023-02-28T08:48:56;8.23;;;5.50;;
40599;SDS011;26309;50.924;4.754;2023-02-28T08:51:27;8.90;;;6.03;;
40599;SDS011;26309;50.924;4.754;2023-02-28T08:53:54;8.47;;;5.67;;
40599;SDS011;26309;50.924;4.754;2023-02-28T08:56:22;13.57;;;7.20;;
40599;SDS011;26309;50.924;4.754;2023-02-28T08:58:49;8.07;;;6.00;;
40599;SDS011;26309;50.924;4.754;2023-02-28T09:01:16;11.77;;;6.40;;
40599;SDS011;26309;50.924;4.754;2023-02-28T09:03:48;8.47;;;5.40;;
40599;SDS011;26309;50.924;4.754;2023-02-28T09:06:15;7.07;;;5.27;;
40599;SDS011;26309;50.924;4.754;2023-02-28T09:08:42;7.47;;;4.93;;
40599;SDS011;26309;50.924;4.754;2023-02-28T09:11:09;9.73;;;5.20;;
40599;SDS011;26309;50.924;4.754;2023-02-28T09:13:35;10.13;;;5.13;;
40599;SDS011;26309;50.924;4.754;2023-02-28T09:16:02;6.17;;;4.57;;
40599;SDS011;26309;50.924;4.754;2023-02-28T09:18:30;4.80;;;4.27;;
40599;SDS011;26309;50.924;4.754;2023-02-28T09:20:58;5.80;;;4.93;;
40599;SDS011;26309;50.924;4.754;2023-02-28T09:23:24;5.00;;;4.43;;
40599;SDS011;26309;50.924;4.754;2023-02-28T09:25:53;5.13;;;4.60;;
40599;SDS011;26309;50.924;4.754;2023-02-28T09:28:20;4.50;;;4.10;;
40599;SDS011;26309;50.924;4.754;2023-02-28T09:30:47;3.70;;;3.40;;
40599;SDS011;26309;50.924;4.754;2023-02-28T09:33:15;4.00;;;3.60;;
40599;SDS011;26309;50.924;4.754;2023-02-28T09:35:42;4.77;;;3.60;;
40599;SDS011;26309;50.924;4.754;2023-02-28T09:38:09;5.63;;;4.13;;
40599;SDS011;26309;50.924;4.754;2023-02-28T09:43:24;3.87;;;3.17;;
40599;SDS011;26309;50.924;4.754;2023-02-28T09:45:57;5.70;;;3.80;;
40599;SDS011;26309;50.924;4.754;2023-02-28T09:48:32;4.67;;;3.47;;
40599;SDS011;26309;50.924;4.754;2023-02-28T09:53:50;3.00;;;2.50;;
40599;SDS011;26309;50.924;4.754;2023-02-28T09:56:20;4.90;;;3.20;;
40599;SDS011;26309;50.924;4.754;2023-02-28T10:09:47;3.53;;;3.20;;
40599;SDS011;26309;50.924;4.754;2023-02-28T10:12:18;4.63;;;3.17;;
40599;SDS011;26309;50.924;4.754;2023-02-28T10:14:50;5.30;;;3.50;;
40599;SDS011;26309;50.924;4.754;2023-02-28T10:17:24;4.23;;;2.97;;
40599;SDS011;26309;50.924;4.754;2023-02-28T10:25:04;3.33;;;2.90;;
40599;SDS011;26309;50.924;4.754;2023-02-28T10:27:41;6.10;;;2.97;;
40599;SDS011;26309;50.924;4.754;2023-02-28T10:30:09;4.13;;;2.87;;
40599;SDS011;26309;50.924;4.754;2023-02-28T10:32:39;3.17;;;2.87;;
40599;SDS011;26309;50.924;4.754;2023-02-28T10:35:15;4.27;;;3.33;;
40599;SDS011;26309;50.924;4.754;2023-02-28T10:37:45;3.17;;;1.93;;
40599;SDS011;26309;50.924;4.754;2023-02-28T10:42:57;3.83;;;2.93;;
40599;SDS011;26309;50.924;4.754;2023-02-28T10:45:26;2.80;;;2.60;;
40599;SDS011;26309;50.924;4.754;2023-02-28T10:50:27;3.80;;;2.83;;
40599;SDS011;26309;50.924;4.754;2023-02-28T11:01:23;4.57;;;2.80;;
40599;SDS011;26309;50.924;4.754;2023-02-28T11:04:00;5.73;;;2.80;;
40599;SDS011;26309;50.924;4.754;2023-02-28T11:06:30;12.73;;;3.40;;
40599;SDS011;26309;50.924;4.754;2023-02-28T11:08:59;3.00;;;2.70;;
40599;SDS011;26309;50.924;4.754;2023-02-28T11:11:28;3.83;;;2.40;;
40599;SDS011;26309;50.924;4.754;2023-02-28T11:14:05;5.60;;;3.17;;
40599;SDS011;26309;50.924;4.754;2023-02-28T11:16:43;3.60;;;3.20;;
40599;SDS011;26309;50.924;4.754;2023-02-28T11:19:16;2.97;;;2.60;;
40599;SDS011;26309;50.924;4.754;2023-02-28T11:21:52;3.20;;;2.90;;
40599;SDS011;26309;50.924;4.754;2023-02-28T11:24:33;5.10;;;3.13;;
40599;SDS011;26309;50.924;4.754;2023-02-28T11:27:05;3.37;;;2.73;;
40599;SDS011;26309;50.924;4.754;2023-02-28T11:29:49;3.13;;;2.60;;
40599;SDS011;26309;50.924;4.754;2023-02-28T11:32:19;3.13;;;2.80;;
40599;SDS011;26309;50.924;4.754;2023-02-28T11:34:47;3.60;;;2.73;;
40599;SDS011;26309;50.924;4.754;2023-02-28T11:37:47;4.03;;;2.80;;
40599;SDS011;26309;50.924;4.754;2023-02-28T11:40:17;5.60;;;2.57;;
40599;SDS011;26309;50.924;4.754;2023-02-28T11:51:03;4.13;;;2.77;;
40599;SDS011;26309;50.924;4.754;2023-02-28T11:54:01;2.57;;;2.37;;
40599;SDS011;26309;50.924;4.754;2023-02-28T11:56:54;2.63;;;2.43;;
40599;SDS011;26309;50.924;4.754;2023-02-28T12:02:35;3.20;;;2.90;;
40599;SDS011;26309;50.924;4.754;2023-02-28T12:05:48;3.20;;;2.63;;
40599;SDS011;26309;50.924;4.754;2023-02-28T12:08:27;6.87;;;2.67;;
40599;SDS011;26309;50.924;4.754;2023-02-28T12:11:33;3.33;;;2.40;;
40599;SDS011;26309;50.924;4.754;2023-02-28T12:27:14;3.20;;;2.90;;
40599;SDS011;26309;50.924;4.754;2023-02-28T12:32:21;3.20;;;2.87;;
40599;SDS011;26309;50.924;4.754;2023-02-28T12:35:04;3.00;;;2.80;;
40599;SDS011;26309;50.924;4.754;2023-02-28T12:40:52;5.80;;;3.03;;
40599;SDS011;26309;50.924;4.754;2023-02-28T12:43:30;4.17;;;2.57;;
40599;SDS011;26309;50.924;4.754;2023-02-28T12:48:48;2.87;;;2.60;;
40599;SDS011;26309;50.924;4.754;2023-02-28T12:51:21;5.10;;;2.93;;
40599;SDS011;26309;50.924;4.754;2023-02-28T12:53:53;3.30;;;3.00;;
40599;SDS011;26309;50.924;4.754;2023-02-28T13:02:02;2.87;;;2.30;;
40599;SDS011;26309;50.924;4.754;2023-02-28T13:10:04;3.53;;;2.40;;
40599;SDS011;26309;50.924;4.754;2023-02-28T13:12:32;3.40;;;2.77;;
40599;SDS011;26309;50.924;4.754;2023-02-28T13:15:02;4.13;;;2.57;;
40599;SDS011;26309;50.924;4.754;2023-02-28T13:17:41;3.93;;;3.10;;
40599;SDS011;26309;50.924;4.754;2023-02-28T13:20:17;4.63;;;2.30;;
40599;SDS011;26309;50.924;4.754;2023-02-28T13:22:46;4.27;;;3.00;;
40599;SDS011;26309;50.924;4.754;2023-02-28T13:27:48;5.43;;;2.87;;
40599;SDS011;26309;50.924;4.754;2023-02-28T13:38:45;3.53;;;2.77;;
40599;SDS011;26309;50.924;4.754;2023-02-28T13:46:26;4.23;;;3.00;;
40599;SDS011;26309;50.924;4.754;2023-02-28T13:48:52;2.90;;;2.30;;
40599;SDS011;26309;50.924;4.754;2023-02-28T13:59:50;4.03;;;2.90;;
40599;SDS011;26309;50.924;4.754;2023-02-28T14:02:40;3.20;;;2.90;;
40599;SDS011;26309;50.924;4.754;2023-02-28T14:05:20;4.87;;;3.30;;
40599;SDS011;26309;50.924;4.754;2023-02-28T14:07:52;5.80;;;3.07;;
40599;SDS011;26309;50.924;4.754;2023-02-28T14:10:31;3.33;;;3.00;;
40599;SDS011;26309;50.924;4.754;2023-02-28T14:15:58;3.47;;;3.17;;
40599;SDS011;26309;50.924;4.754;2023-02-28T14:18:32;4.00;;;3.60;;
40599;SDS011;26309;50.924;4.754;2023-02-28T14:26:53;5.47;;;3.53;;
40599;SDS011;26309;50.924;4.754;2023-02-28T14:32:30;5.80;;;3.90;;
40599;SDS011;26309;50.924;4.754;2023-02-28T14:41:32;4.13;;;3.40;;
40599;SDS011;26309;50.924;4.754;2023-02-28T14:44:14;4.17;;;3.73;;
40599;SDS011;26309;50.924;4.754;2023-02-28T14:46:47;4.60;;;3.20;;
40599;SDS011;26309;50.924;4.754;2023-02-28T14:49:17;6.27;;;3.03;;
40599;SDS011;26309;50.924;4.754;2023-02-28T14:54:31;5.83;;;3.50;;
40599;SDS011;26309;50.924;4.754;2023-02-28T14:56:58;3.83;;;3.27;;
40599;SDS011;26309;50.924;4.754;2023-02-28T14:59:28;3.97;;;3.30;;
40599;SDS011;26309;50.924;4.754;2023-02-28T15:02:15;7.40;;;3.70;;
40599;SDS011;26309;50.924;4.754;2023-02-28T15:04:52;4.37;;;3.53;;
40599;SDS011;26309;50.924;4.754;2023-02-28T15:07:22;5.17;;;3.63;;
40599;SDS011;26309;50.924;4.754;2023-02-28T15:18:05;3.47;;;3.17;;
40599;SDS011;26309;50.924;4.754;2023-02-28T15:20:32;4.90;;;3.93;;
40599;SDS011;26309;50.924;4.754;2023-02-28T15:23:00;3.17;;;2.87;;
40599;SDS011;26309;50.924;4.754;2023-02-28T15:25:27;8.67;;;3.57;;
40599;SDS011;26309;50.924;4.754;2023-02-28T15:27:53;4.27;;;3.53;;
40599;SDS011;26309;50.924;4.754;2023-02-28T15:30:26;3.90;;;3.60;;
40599;SDS011;26309;50.924;4.754;2023-02-28T15:35:46;5.87;;;3.80;;
40599;SDS011;26309;50.924;4.754;2023-02-28T15:45:55;4.07;;;3.57;;
40599;SDS011;26309;50.924;4.754;2023-02-28T15:48:31;4.97;;;3.83;;
40599;SDS011;26309;50.924;4.754;2023-02-28T15:51:05;4.03;;;3.00;;
40599;SDS011;26309;50.924;4.754;2023-02-28T15:53:47;3.57;;;3.13;;
40599;SDS011;26309;50.924;4.754;2023-02-28T15:56:27;3.10;;;2.80;;
40599;SDS011;26309;50.924;4.754;2023-02-28T15:58:56;5.70;;;3.37;;
40599;SDS011;26309;50.924;4.754;2023-02-28T16:01:29;4.23;;;3.27;;
40599;SDS011;26309;50.924;4.754;2023-02-28T16:03:59;5.37;;;3.37;;
40599;SDS011;26309;50.924;4.754;2023-02-28T16:06:36;10.93;;;3.90;;
40599;SDS011;26309;50.924;4.754;2023-02-28T16:09:10;4.27;;;3.33;;
40599;SDS011;26309;50.924;4.754;2023-02-28T16:11:42;3.23;;;2.93;;
40599;SDS011;26309;50.924;4.754;2023-02-28T16:14:20;4.73;;;3.70;;
40599;SDS011;26309;50.924;4.754;2023-02-28T16:16:52;3.07;;;2.57;;
40599;SDS011;26309;50.924;4.754;2023-02-28T16:19:20;5.90;;;3.33;;
40599;SDS011;26309;50.924;4.754;2023-02-28T16:21:46;10.00;;;3.40;;
40599;SDS011;26309;50.924;4.754;2023-02-28T16:24:13;4.33;;;3.37;;
40599;SDS011;26309;50.924;4.754;2023-02-28T16:26:44;3.77;;;3.00;;
40599;SDS011;26309;50.924;4.754;2023-02-28T16:29:13;3.90;;;3.27;;
40599;SDS011;26309;50.924;4.754;2023-02-28T16:32:06;5.27;;;2.90;;
40599;SDS011;26309;50.924;4.754;2023-02-28T16:34:33;6.10;;;3.20;;
40599;SDS011;26309;50.924;4.754;2023-02-28T16:36:59;3.73;;;3.33;;
40599;SDS011;26309;50.924;4.754;2023-02-28T16:39:24;3.93;;;3.20;;
40599;SDS011;26309;50.924;4.754;2023-02-28T16:41:51;6.37;;;3.50;;
40599;SDS011;26309;50.924;4.754;2023-02-28T16:44:59;4.90;;;3.33;;
40599;SDS011;26309;50.924;4.754;2023-02-28T16:47:06;3.90;;;2.70;;
40599;SDS011;26309;50.924;4.754;2023-02-28T16:49:34;5.63;;;3.40;;
40599;SDS011;26309;50.924;4.754;2023-02-28T16:54:42;4.87;;;3.63;;
40599;SDS011;26309;50.924;4.754;2023-02-28T16:57:19;4.73;;;3.50;;
40599;SDS011;26309;50.924;4.754;2023-02-28T16:59:48;5.63;;;3.70;;
40599;SDS011;26309;50.924;4.754;2023-02-28T17:02:16;4.70;;;3.63;;
40599;SDS011;26309;50.924;4.754;2023-02-28T17:04:44;16.47;;;8.17;;
40599;SDS011;26309;50.924;4.754;2023-02-28T17:07:11;7.07;;;3.90;;
40599;SDS011;26309;50.924;4.754;2023-02-28T17:09:39;5.33;;;3.40;;
40599;SDS011;26309;50.924;4.754;2023-02-28T17:12:06;5.83;;;3.40;;
40599;SDS011;26309;50.924;4.754;2023-02-28T17:14:32;4.67;;;3.80;;
40599;SDS011;26309;50.924;4.754;2023-02-28T17:16:59;5.20;;;3.40;;
40599;SDS011;26309;50.924;4.754;2023-02-28T17:19:25;7.27;;;3.87;;
40599;SDS011;26309;50.924;4.754;2023-02-28T17:21:53;7.73;;;3.77;;
40599;SDS011;26309;50.924;4.754;2023-02-28T17:24:19;5.10;;;3.37;;
40599;SDS011;26309;50.924;4.754;2023-02-28T17:26:45;4.67;;;3.30;;
40599;SDS011;26309;50.924;4.754;2023-02-28T17:29:20;5.30;;;3.67;;
40599;SDS011;26309;50.924;4.754;2023-02-28T17:31:47;6.23;;;3.47;;
40599;SDS011;26309;50.924;4.754;2023-02-28T17:34:13;6.10;;;3.77;;
40599;SDS011;26309;50.924;4.754;2023-02-28T17:36:43;5.87;;;3.67;;
40599;SDS011;26309;50.924;4.754;2023-02-28T17:39:11;8.17;;;4.80;;
40599;SDS011;26309;50.924;4.754;2023-02-28T17:41:39;6.13;;;3.40;;
40599;SDS011;26309;50.924;4.754;2023-02-28T17:44:07;8.90;;;3.60;;
40599;SDS011;26309;50.924;4.754;2023-02-28T17:46:33;6.43;;;3.97;;
40599;SDS011;26309;50.924;4.754;2023-02-28T17:49:02;3.87;;;3.40;;
40599;SDS011;26309;50.924;4.754;2023-02-28T17:51:28;5.57;;;3.87;;
40599;SDS011;26309;50.924;4.754;2023-02-28T17:53:54;6.67;;;4.30;;
40599;SDS011;26309;50.924;4.754;2023-02-28T17:56:21;7.27;;;5.33;;
40599;SDS011;26309;50.924;4.754;2023-02-28T17:58:48;9.67;;;5.33;;
40599;SDS011;26309;50.924;4.754;2023-02-28T18:01:16;10.63;;;6.20;;
40599;SDS011;26309;50.924;4.754;2023-02-28T18:03:42;9.83;;;5.93;;
40599;SDS011;26309;50.924;4.754;2023-02-28T18:06:24;7.13;;;4.30;;
40599;SDS011;26309;50.924;4.754;2023-02-28T18:08:52;6.00;;;4.00;;
40599;SDS011;26309;50.924;4.754;2023-02-28T18:11:20;10.93;;;4.37;;
40599;SDS011;26309;50.924;4.754;2023-02-28T18:13:50;9.10;;;4.17;;